Time;durP1;ratioP1;P1;durP2;ratioP2;P2;SDS_P1;SDS_P2;PMS_P1;PMS_P2;Temp;Humidity;BMP_temperature;BMP_pressure;BME280_temperature;BME280_humidity;BME280_pressure;Samples;Min_cycle;Max_cycle;Signal;HPM_P1;HPM_P2
2023/05/11 04:02:35;;;;;;;2.78;1.50;;;12.50;99.90;;;;;;4997888;23;20267;-69
2023/05/11 04:05:09;;;;;;;2.20;1.45;;;12.50;99.90;;;;;;4980201;28;20031;-69
2023/05/11 04:07:36;;;;;;;3.35;1.60;;;12.50;99.90;;;;;;4983341;28;20027;-69
2023/05/11 04:10:02;;;;;;;3.13;1.13;;;12.40;99.90;;;;;;4980777;28;20179;-70
2023/05/11 04:12:28;;;;;;;2.60;1.10;;;12.50;99.90;;;;;;4965286;28;20038;-74
2023/05/11 04:14:53;;;;;;;2.20;1.40;;;12.50;99.90;;;;;;4985723;23;20031;-71
2023/05/11 04:17:19;;;;;;;3.37;1.50;;;12.40;99.90;;;;;;4971958;28;20031;-71
2023/05/11 04:19:44;;;;;;;3.80;1.83;;;12.40;99.90;;;;;;4957270;28;20019;-71
2023/05/11 04:22:11;;;;;;;6.00;1.50;;;12.40;99.90;;;;;;4963295;28;20085;-71
2023/05/11 04:24:36;;;;;;;;;;;12.30;99.90;;;;;;4977773;28;20073;-71
2023/05/11 04:27:02;;;;;;;5.35;1.52;;;12.40;99.90;;;;;;4976945;28;19906;-70
2023/05/11 04:29:28;;;;;;;2.40;1.70;;;12.40;99.90;;;;;;4975769;28;20034;-72
2023/05/11 04:31:54;;;;;;;3.03;1.92;;;12.50;99.90;;;;;;4976738;28;20039;-72
2023/05/11 04:34:20;;;;;;;3.50;1.50;;;12.50;99.90;;;;;;4976113;28;20027;-72
2023/05/11 04:36:49;;;;;;;3.80;1.70;;;12.40;99.90;;;;;;4975516;28;20037;-72
2023/05/11 04:39:15;;;;;;;5.30;2.30;;;12.40;99.90;;;;;;4976286;28;20088;-72
2023/05/11 04:41:41;;;;;;;;;;;12.50;99.90;;;;;;4976046;28;20027;-73
2023/05/11 04:44:07;;;;;;;4.63;2.20;;;12.50;99.90;;;;;;4976816;28;20382;-73
2023/05/11 04:46:32;;;;;;;2.53;2.10;;;12.50;99.90;;;;;;4975301;28;20033;-72
2023/05/11 04:48:58;;;;;;;4.67;2.37;;;12.40;99.90;;;;;;4976597;28;20041;-73
2023/05/11 04:51:23;;;;;;;2.70;1.83;;;12.50;99.90;;;;;;4975590;28;20023;-73
2023/05/11 04:53:49;;;;;;;2.50;1.90;;;12.50;99.90;;;;;;4976770;28;20270;-72
2023/05/11 04:56:15;;;;;;;3.10;2.03;;;12.50;99.90;;;;;;4976870;28;20494;-72
2023/05/11 04:58:40;;;;;;;2.93;2.20;;;12.50;99.90;;;;;;4990337;28;20026;-73
2023/05/11 05:01:06;;;;;;;5.23;2.20;;;12.60;99.90;;;;;;4974127;28;20026;-72
2023/05/11 05:03:31;;;;;;;4.13;2.03;;;12.60;99.90;;;;;;4975948;28;20105;-72
2023/05/11 05:05:57;;;;;;;4.13;1.93;;;12.70;99.90;;;;;;4976311;28;20038;-72
2023/05/11 05:08:22;;;;;;;3.43;2.37;;;12.60;99.90;;;;;;4990881;28;20023;-71
2023/05/11 05:10:48;;;;;;;5.73;2.10;;;12.60;99.90;;;;;;4974501;28;20031;-73
2023/05/11 05:13:15;;;;;;;5.03;2.70;;;12.70;99.90;;;;;;4974573;28;20027;-72
2023/05/11 05:15:41;;;;;;;3.58;2.10;;;12.60;99.90;;;;;;4983555;28;20031;-72
2023/05/11 05:18:06;;;;;;;2.85;2.03;;;12.60;99.90;;;;;;4976881;28;20381;-72
2023/05/11 05:20:33;;;;;;;2.77;2.37;;;12.60;99.90;;;;;;4981347;28;20042;-72
2023/05/11 05:23:00;;;;;;;5.30;2.00;;;12.60;99.90;;;;;;4988313;28;20023;-72
2023/05/11 05:25:29;;;;;;;3.13;1.92;;;12.60;99.90;;;;;;4977800;28;20059;-74
2023/05/11 05:28:03;;;;;;;3.80;2.40;;;12.70;99.90;;;;;;4971770;28;20042;-72
2023/05/11 05:30:29;;;;;;;7.50;4.47;;;12.60;99.90;;;;;;4984056;28;20026;-73
2023/05/11 05:32:56;;;;;;;4.10;2.20;;;12.60;99.90;;;;;;4994707;28;20035;-72
2023/05/11 05:35:22;;;;;;;3.45;2.20;;;12.60;99.90;;;;;;4974069;28;20043;-72
2023/05/11 05:37:54;;;;;;;3.22;2.15;;;12.60;99.90;;;;;;4966169;28;20041;-72
2023/05/11 05:40:20;;;;;;;4.57;2.17;;;12.70;99.90;;;;;;4972848;28;20031;-71
2023/05/11 05:42:46;;;;;;;3.45;2.60;;;12.70;99.90;;;;;;4962244;28;20504;-72
2023/05/11 05:45:12;;;;;;;3.00;2.13;;;12.80;99.90;;;;;;4976216;28;20035;-72
2023/05/11 05:47:43;;;;;;;3.47;2.10;;;12.80;99.90;;;;;;4979939;28;20054;-72
2023/05/11 05:50:09;;;;;;;3.70;2.17;;;12.80;99.90;;;;;;4996040;28;20027;-72
2023/05/11 05:52:34;;;;;;;4.00;2.20;;;12.80;99.90;;;;;;4990943;28;20398;-72
2023/05/11 05:55:00;;;;;;;4.33;2.40;;;12.80;99.90;;;;;;4992826;28;20042;-72
2023/05/11 05:57:26;;;;;;;3.90;2.13;;;12.80;99.90;;;;;;4976227;28;20023;-72
2023/05/11 05:59:51;;;;;;;3.03;2.00;;;12.80;99.90;;;;;;4974767;28;20595;-72
2023/05/11 06:02:17;;;;;;;4.77;2.53;;;12.80;99.90;;;;;;4977418;28;20274;-73
2023/05/11 06:04:43;;;;;;;5.10;2.15;;;12.80;99.90;;;;;;4976620;28;20042;-72
2023/05/11 06:07:08;;;;;;;4.23;2.13;;;12.80;99.90;;;;;;4977628;28;20549;-72
2023/05/11 06:09:34;;;;;;;7.17;2.33;;;12.80;99.90;;;;;;4981478;28;20475;-72
2023/05/11 06:12:00;;;;;;;4.50;2.40;;;12.90;99.90;;;;;;4982792;28;20031;-72
2023/05/11 06:14:26;;;;;;;5.07;2.47;;;12.90;99.90;;;;;;4994669;28;20424;-73
2023/05/11 06:16:52;;;;;;;2.78;2.05;;;13.00;99.90;;;;;;4976993;28;20046;-72
2023/05/11 06:19:18;;;;;;;3.08;2.40;;;13.00;99.90;;;;;;4976931;28;20059;-73
2023/05/11 06:21:44;;;;;;;3.20;2.20;;;13.00;99.90;;;;;;4976208;28;20045;-73
2023/05/11 06:24:10;;;;;;;3.53;2.17;;;13.00;99.90;;;;;;4962910;28;20022;-73
2023/05/11 06:26:36;;;;;;;4.72;2.25;;;13.10;99.90;;;;;;4975550;28;20023;-70
2023/05/11 06:29:01;;;;;;;3.90;2.47;;;13.00;99.90;;;;;;4974339;28;20034;-69
2023/05/11 06:31:28;;;;;;;5.47;2.78;;;13.00;99.90;;;;;;4975661;28;20027;-71
2023/05/11 06:33:53;;;;;;;5.60;2.40;;;13.00;99.90;;;;;;4974179;28;20101;-71
2023/05/11 06:36:19;;;;;;;2.75;2.00;;;13.10;99.90;;;;;;4975504;28;20031;-71
2023/05/11 06:38:45;;;;;;;5.70;2.80;;;13.10;99.90;;;;;;4975311;28;20034;-71
2023/05/11 06:41:10;;;;;;;4.83;2.30;;;13.20;99.90;;;;;;4973869;28;20030;-71
2023/05/11 06:43:37;;;;;;;3.13;2.27;;;13.20;99.90;;;;;;4974963;28;20037;-72
2023/05/11 06:46:03;;;;;;;7.15;2.35;;;13.10;99.90;;;;;;4974730;28;20025;-72
2023/05/11 06:48:28;;;;;;;8.20;2.75;;;13.10;99.90;;;;;;4974803;28;20015;-71
2023/05/11 06:50:55;;;;;;;4.23;2.13;;;13.30;99.90;;;;;;4974926;28;20050;-70
2023/05/11 06:53:21;;;;;;;4.40;2.40;;;13.40;99.90;;;;;;4985931;28;20279;-68
2023/05/11 06:55:47;;;;;;;4.93;2.30;;;13.40;99.90;;;;;;4955083;28;20480;-68
2023/05/11 06:58:13;;;;;;;5.15;2.83;;;13.60;99.90;;;;;;4971079;28;20050;-69
2023/05/11 07:00:38;;;;;;;4.95;2.30;;;13.80;99.90;;;;;;4974509;28;20027;-72
2023/05/11 07:03:04;;;;;;;2.30;2.10;;;13.90;99.90;;;;;;4972820;28;20030;-69
2023/05/11 07:05:30;;;;;;;4.60;2.35;;;14.10;99.90;;;;;;4989422;28;20117;-71
2023/05/11 07:07:56;;;;;;;4.10;2.58;;;14.20;99.90;;;;;;4974914;28;20106;-71
2023/05/11 07:10:22;;;;;;;3.40;2.10;;;14.30;99.90;;;;;;4973362;28;20116;-71
2023/05/11 07:12:48;;;;;;;4.93;2.10;;;14.30;99.90;;;;;;4989190;28;20033;-72
2023/05/11 07:15:13;;;;;;;3.58;2.40;;;14.30;99.90;;;;;;4974347;28;20046;-71
2023/05/11 07:17:39;;;;;;;3.90;2.40;;;14.30;99.90;;;;;;4973891;28;20034;-71
2023/05/11 07:20:05;;;;;;;5.43;2.45;;;14.40;99.90;;;;;;4973085;28;20029;-72
2023/05/11 07:22:31;;;;;;;6.07;2.47;;;14.40;99.90;;;;;;4975459;28;20038;-71
2023/05/11 07:24:56;;;;;;;4.40;2.60;;;14.40;99.90;;;;;;4977285;28;20387;-71
2023/05/11 07:27:22;;;;;;;6.00;3.00;;;14.40;99.90;;;;;;4976659;28;20066;-72
2023/05/11 07:29:47;;;;;;;4.67;2.80;;;14.30;99.90;;;;;;4976846;28;20114;-69
2023/05/11 07:32:13;;;;;;;5.63;2.88;;;14.40;99.90;;;;;;4977552;28;20084;-71
2023/05/11 07:34:40;;;;;;;4.60;3.20;;;14.40;99.90;;;;;;4992922;28;20031;-69
2023/05/11 07:37:07;;;;;;;3.88;2.50;;;14.30;99.90;;;;;;4976558;28;20383;-71
2023/05/11 07:39:33;;;;;;;5.13;2.60;;;14.30;99.90;;;;;;4978215;28;20027;-73
2023/05/11 07:41:58;;;;;;;3.92;2.65;;;14.30;99.90;;;;;;4977826;28;20471;-71
2023/05/11 07:44:24;;;;;;;4.47;3.10;;;14.30;99.90;;;;;;4977724;28;20055;-71
2023/05/11 07:46:49;;;;;;;4.85;3.15;;;14.20;99.90;;;;;;4977364;28;20022;-71
2023/05/11 07:49:15;;;;;;;9.52;5.35;;;14.20;99.90;;;;;;4977335;28;20388;-71
2023/05/11 07:51:41;;;;;;;4.50;2.97;;;14.30;99.90;;;;;;4976342;28;20031;-72
2023/05/11 07:54:07;;;;;;;7.32;2.70;;;14.40;99.90;;;;;;4977543;28;20027;-72
2023/05/11 07:56:32;;;;;;;3.25;2.63;;;14.40;99.90;;;;;;4977587;28;20034;-72
2023/05/11 07:58:58;;;;;;;4.77;3.03;;;14.30;99.90;;;;;;4977806;28;20022;-72
2023/05/11 08:01:23;;;;;;;4.30;2.90;;;14.40;99.90;;;;;;4976369;28;20047;-72
2023/05/11 08:03:49;;;;;;;4.68;2.78;;;14.40;99.90;;;;;;4977326;28;20438;-73
2023/05/11 08:06:14;;;;;;;4.10;2.97;;;14.40;99.90;;;;;;4977498;28;20058;-73
2023/05/11 08:08:40;;;;;;;4.70;3.10;;;14.50;99.90;;;;;;4977667;28;20082;-73
2023/05/11 08:11:06;;;;;;;4.33;2.90;;;14.60;99.90;;;;;;4976207;28;20038;-72
2023/05/11 08:13:31;;;;;;;4.30;3.00;;;14.50;99.90;;;;;;4976082;28;20118;-73
2023/05/11 08:15:57;;;;;;;6.95;3.00;;;14.50;99.90;;;;;;4976853;28;20039;-73
2023/05/11 08:18:22;;;;;;;5.57;3.00;;;14.60;99.90;;;;;;4975927;28;20027;-73
2023/05/11 08:20:48;;;;;;;4.83;3.60;;;14.60;99.90;;;;;;4976249;28;20026;-73
2023/05/11 08:23:16;;;;;;;5.30;3.13;;;14.70;99.90;;;;;;4977248;28;20314;-72
2023/05/11 08:25:53;;;;;;;6.15;3.17;;;14.80;99.90;;;;;;4975903;28;20425;-73
2023/05/11 08:28:20;;;;;;;7.68;4.00;;;14.80;99.90;;;;;;4983761;28;20015;-72
2023/05/11 08:30:45;;;;;;;11.82;3.38;;;14.70;99.90;;;;;;4982785;28;20033;-73
2023/05/11 08:33:12;;;;;;;6.67;3.70;;;14.70;99.90;;;;;;4975529;28;20109;-72
2023/05/11 08:35:38;;;;;;;6.00;3.38;;;14.80;99.90;;;;;;4975873;28;20274;-72
2023/05/11 08:38:04;;;;;;;4.85;3.35;;;14.90;99.90;;;;;;4976964;28;20031;-72
2023/05/11 08:40:30;;;;;;;5.00;3.22;;;14.90;99.90;;;;;;4976614;28;20117;-74
2023/05/11 08:42:56;;;;;;;3.83;3.00;;;15.00;99.90;;;;;;4976835;28;20063;-74
2023/05/11 08:45:22;;;;;;;5.05;3.33;;;15.20;99.90;;;;;;4976536;28;20054;-73
2023/05/11 08:47:48;;;;;;;5.60;3.45;;;15.20;99.90;;;;;;4976615;28;20027;-73
2023/05/11 08:50:14;;;;;;;;;;;15.10;99.90;;;;;;4977128;28;20038;-73
2023/05/11 08:52:40;;;;;;;5.97;3.65;;;15.00;99.90;;;;;;4976750;28;19910;-74
2023/05/11 08:55:07;;;;;;;4.15;3.33;;;14.90;99.90;;;;;;4975917;28;20090;-74
2023/05/11 08:57:34;;;;;;;4.45;3.33;;;14.80;99.90;;;;;;4976216;28;20060;-73
2023/05/11 09:00:03;;;;;;;8.75;3.70;;;14.80;99.90;;;;;;4977017;28;20368;-73
2023/05/11 09:02:30;;;;;;;10.32;3.60;;;14.80;99.90;;;;;;4976654;28;20037;-73
2023/05/11 09:04:57;;;;;;;7.60;3.83;;;14.70;99.90;;;;;;4976587;28;20050;-73
2023/05/11 09:07:24;;;;;;;7.30;3.25;;;14.60;99.90;;;;;;4975023;28;20023;-74
2023/05/11 09:09:49;;;;;;;5.40;3.45;;;14.80;99.90;;;;;;4975131;28;20387;-75
2023/05/11 09:12:16;;;;;;;4.20;3.20;;;14.80;99.90;;;;;;4976372;28;20047;-74
2023/05/11 09:14:41;;;;;;;4.20;3.08;;;14.90;99.90;;;;;;4975153;28;20498;-74
2023/05/11 09:17:07;;;;;;;6.10;3.63;;;15.00;99.90;;;;;;4974742;28;20039;-74
2023/05/11 09:19:33;;;;;;;4.72;3.25;;;15.10;99.90;;;;;;4976717;28;20030;-74
2023/05/11 09:21:59;;;;;;;8.10;3.33;;;15.10;99.90;;;;;;4975430;28;20460;-73
2023/05/11 09:24:25;;;;;;;3.90;2.97;;;15.20;99.90;;;;;;4976327;28;20022;-73
2023/05/11 09:27:06;;;;;;;4.50;3.05;;;15.20;99.90;;;;;;4975021;28;20503;-73
2023/05/11 09:29:32;;;;;;;5.70;3.17;;;15.30;99.90;;;;;;4977793;28;20019;-74
2023/05/11 09:31:58;;;;;;;4.53;3.60;;;15.40;99.90;;;;;;4977777;28;20038;-75
2023/05/11 09:34:23;;;;;;;6.30;3.17;;;15.40;99.90;;;;;;4976150;28;20027;-73
2023/05/11 09:36:51;;;;;;;5.43;3.22;;;15.60;99.90;;;;;;4974963;28;20270;-74
2023/05/11 09:39:20;;;;;;;6.45;3.35;;;15.70;99.90;;;;;;4976025;28;20035;-73
2023/05/11 09:41:46;;;;;;;7.30;4.57;;;15.60;99.90;;;;;;4974661;28;20147;-73
2023/05/11 09:44:13;;;;;;;5.63;3.23;;;15.80;99.90;;;;;;4976017;28;20044;-74
2023/05/11 09:46:43;;;;;;;4.47;3.30;;;15.70;99.90;;;;;;4973642;28;20309;-73
2023/05/11 09:49:10;;;;;;;8.32;3.28;;;15.80;99.90;;;;;;4975713;28;20122;-73
2023/05/11 09:51:39;;;;;;;6.32;3.30;;;15.80;99.90;;;;;;4975822;28;20098;-74
2023/05/11 09:54:16;;;;;;;6.93;3.80;;;15.40;99.90;;;;;;4974344;28;20117;-74
2023/05/11 09:56:53;;;;;;;8.02;4.28;;;15.50;99.90;;;;;;4975453;28;20026;-74
2023/05/11 09:59:41;;;;;;;5.68;3.60;;;15.70;99.90;;;;;;4975472;28;20390;-73
2023/05/11 10:02:26;;;;;;;5.80;3.70;;;15.90;99.90;;;;;;4973650;28;20488;-73
2023/05/11 10:04:54;;;;;;;7.43;4.25;;;16.20;99.90;;;;;;4973986;28;20037;-73
2023/05/11 10:07:23;;;;;;;5.22;3.60;;;16.30;99.90;;;;;;4974069;28;20027;-73
2023/05/11 10:09:53;;;;;;;6.50;3.40;;;16.50;99.90;;;;;;4990193;28;20368;-74
2023/05/11 10:12:22;;;;;;;4.20;3.47;;;16.50;99.90;;;;;;4975279;28;20026;-72
2023/05/11 10:14:51;;;;;;;6.78;3.35;;;16.40;99.90;;;;;;4975697;28;20110;-73
2023/05/11 10:17:18;;;;;;;4.57;3.40;;;16.50;99.90;;;;;;4975375;28;20550;-73
2023/05/11 10:19:44;;;;;;;5.88;3.10;;;16.60;99.90;;;;;;4974510;28;20069;-73
2023/05/11 10:22:11;;;;;;;5.38;3.65;;;16.70;99.90;;;;;;4975432;28;20066;-73
2023/05/11 10:24:37;;;;;;;7.15;3.08;;;16.80;99.90;;;;;;4975101;28;20069;-73
2023/05/11 10:27:04;;;;;;;5.47;3.38;;;17.00;99.90;;;;;;4976595;28;20110;-73
2023/05/11 10:29:31;;;;;;;4.75;3.63;;;17.00;99.90;;;;;;4976386;28;20452;-73
2023/05/11 10:31:58;;;;;;;4.28;3.28;;;17.10;99.90;;;;;;4977287;28;20058;-72
2023/05/11 10:34:25;;;;;;;5.22;3.13;;;17.00;99.90;;;;;;4976926;28;20023;-72
2023/05/11 10:36:52;;;;;;;7.43;4.40;;;17.10;99.90;;;;;;4977115;28;20082;-72
2023/05/11 10:39:17;;;;;;;4.40;3.17;;;17.10;99.90;;;;;;4992482;28;20027;-73
2023/05/11 10:41:48;;;;;;;4.85;2.97;;;17.10;99.90;;;;;;4976439;28;20033;-73
2023/05/11 10:44:23;;;;;;;5.85;3.15;;;16.90;99.90;;;;;;4982780;28;20070;-73
2023/05/11 10:46:57;;;;;;;4.55;3.53;;;16.70;99.90;;;;;;4975062;28;20034;-73
2023/05/11 10:49:56;;;;;;;7.82;3.33;;;16.50;99.90;;;;;;4989330;28;20023;-72
2023/05/11 10:52:47;;;;;;;4.90;3.90;;;16.70;99.90;;;;;;4973293;28;20037;-73
2023/05/11 10:55:48;;;;;;;6.95;2.80;;;16.90;99.90;;;;;;4989173;28;20392;-73
2023/05/11 10:58:49;;;;;;;5.78;2.97;;;17.10;99.90;;;;;;4973390;28;20085;-73
2023/05/11 11:01:30;;;;;;;14.65;3.75;;;17.50;99.90;;;;;;4988973;28;20124;-72
2023/05/11 11:03:58;;;;;;;7.22;3.00;;;17.30;99.90;;;;;;4974375;28;20074;-73
2023/05/11 11:06:24;;;;;;;3.60;2.88;;;17.20;99.90;;;;;;4974562;28;20460;-72
2023/05/11 11:09:02;;;;;;;6.47;3.30;;;17.30;99.90;;;;;;4974141;28;20030;-72
2023/05/11 11:11:37;;;;;;;7.78;3.30;;;17.30;99.90;;;;;;4974406;28;20023;-71
2023/05/11 11:14:05;;;;;;;6.35;4.65;;;17.20;99.90;;;;;;4973390;28;20400;-72
2023/05/11 11:16:32;;;;;;;5.85;3.30;;;17.30;99.90;;;;;;4973671;28;20045;-73
2023/05/11 11:19:31;;;;;;;5.22;3.35;;;17.40;99.90;;;;;;4973874;28;20066;-73
2023/05/11 11:21:58;;;;;;;5.03;3.13;;;17.30;99.90;;;;;;4972780;28;20113;-74
2023/05/11 11:24:36;;;;;;;3.35;2.80;;;17.40;99.90;;;;;;4972529;28;20110;-73
2023/05/11 11:27:03;;;;;;;3.97;3.00;;;17.60;99.90;;;;;;4972581;28;20074;-73
2023/05/11 11:29:29;;;;;;;4.25;2.47;;;17.80;99.90;;;;;;4971351;28;20015;-73
2023/05/11 11:31:55;;;;;;;;;;;17.80;99.90;;;;;;4972968;28;20372;-73
2023/05/11 11:34:26;;;;;;;6.05;3.05;;;17.80;99.90;;;;;;4971659;28;19906;-74
2023/05/11 11:36:57;;;;;;;7.35;3.03;;;17.30;99.90;;;;;;4988877;28;20034;-73
2023/05/11 11:39:25;;;;;;;5.68;3.70;;;17.40;99.90;;;;;;4989281;28;20081;-74
2023/05/11 11:42:01;;;;;;;3.72;2.83;;;17.40;99.90;;;;;;4973849;28;20034;-74
2023/05/11 11:44:27;;;;;;;8.07;2.30;;;17.70;99.90;;;;;;4972674;28;20030;-73
2023/05/11 11:47:11;;;;;;;4.43;3.50;;;17.80;99.90;;;;;;4973585;28;20027;-74
2023/05/11 11:49:42;;;;;;;5.38;3.72;;;17.80;99.90;;;;;;4988676;28;20507;-73
2023/05/11 11:52:30;;;;;;;4.38;3.05;;;17.70;99.90;;;;;;4973908;28;20030;-74
2023/05/11 11:55:01;;;;;;;5.28;3.42;;;17.40;99.90;;;;;;4974050;28;20037;-72
2023/05/11 11:57:36;;;;;;;3.70;2.90;;;17.40;99.90;;;;;;4973004;28;20034;-74
2023/05/11 12:00:04;;;;;;;4.68;2.90;;;17.50;99.90;;;;;;4974160;28;20026;-74
2023/05/11 12:02:31;;;;;;;6.50;3.00;;;17.60;99.90;;;;;;4988915;28;20023;-73
2023/05/11 12:05:05;;;;;;;5.40;2.85;;;17.60;99.90;;;;;;4974358;28;20081;-74
2023/05/11 12:07:32;;;;;;;6.40;2.85;;;17.60;99.90;;;;;;4973935;28;20123;-73
2023/05/11 12:10:02;;;;;;;5.38;3.20;;;17.60;99.90;;;;;;4977129;28;20376;-74
2023/05/11 12:12:29;;;;;;;3.92;2.75;;;17.70;99.90;;;;;;4977225;28;20023;-74
2023/05/11 12:14:54;;;;;;;4.90;3.17;;;17.80;99.90;;;;;;4976815;28;20035;-74
2023/05/11 12:17:24;;;;;;;4.15;3.13;;;17.90;99.90;;;;;;4975467;28;20117;-74
2023/05/11 12:19:50;;;;;;;5.88;3.28;;;18.00;99.90;;;;;;4975800;28;20113;-74
2023/05/11 12:22:21;;;;;;;6.28;3.90;;;17.90;99.90;;;;;;4977159;28;20521;-73
2023/05/11 12:24:47;;;;;;;8.98;3.30;;;17.90;99.90;;;;;;4975861;28;20037;-74
2023/05/11 12:27:16;;;;;;;4.45;3.42;;;17.60;99.90;;;;;;4977341;28;20106;-73
2023/05/11 12:29:44;;;;;;;4.75;3.10;;;17.60;99.90;;;;;;4977012;28;20023;-74
2023/05/11 12:32:13;;;;;;;7.85;3.60;;;17.50;99.90;;;;;;4976597;28;20019;-73
2023/05/11 12:34:38;;;;;;;4.60;3.28;;;17.60;99.90;;;;;;4977309;28;20027;-74
2023/05/11 12:37:05;;;;;;;7.23;3.10;;;17.80;99.90;;;;;;4975251;28;20491;-74
2023/05/11 12:39:31;;;;;;;4.22;3.10;;;18.00;99.90;;;;;;4976839;28;20254;-73
2023/05/11 12:41:57;;;;;;;4.38;3.03;;;18.10;99.90;;;;;;4977011;28;20023;-74
2023/05/11 12:44:25;;;;;;;5.47;3.05;;;18.20;99.90;;;;;;4975859;28;20061;-76
2023/05/11 12:46:51;;;;;;;4.32;3.10;;;18.10;99.90;;;;;;4991669;28;20049;-74
2023/05/11 12:49:18;;;;;;;4.80;3.15;;;17.50;99.90;;;;;;4975648;28;20034;-74
2023/05/11 12:51:53;;;;;;;6.65;3.28;;;17.60;99.90;;;;;;4976102;28;20529;-75
2023/05/11 12:54:32;;;;;;;3.22;2.78;;;17.70;99.90;;;;;;4992064;28;20027;-75
2023/05/11 12:57:00;;;;;;;5.90;3.03;;;17.80;99.90;;;;;;4975549;28;20476;-74
2023/05/11 12:59:36;;;;;;;3.95;2.50;;;17.90;99.90;;;;;;4988242;28;20509;-73
2023/05/11 13:02:14;;;;;;;3.83;2.53;;;18.00;99.90;;;;;;4978635;28;20369;-73
2023/05/11 13:04:41;;;;;;;4.97;2.90;;;17.90;99.90;;;;;;4975157;28;20037;-74
2023/05/11 13:07:08;;;;;;;5.93;2.80;;;17.90;99.90;;;;;;4976238;28;20022;-73
2023/05/11 13:09:33;;;;;;;4.95;2.83;;;18.00;99.90;;;;;;4976123;28;20027;-74
2023/05/11 13:12:16;;;;;;;4.65;2.80;;;18.20;99.90;;;;;;4975149;28;20027;-73
2023/05/11 13:14:46;;;;;;;3.55;2.92;;;18.40;99.90;;;;;;4975601;28;20479;-74
2023/05/11 13:17:12;;;;;;;4.07;2.70;;;18.50;99.90;;;;;;4976069;28;20412;-74
2023/05/11 13:19:38;;;;;;;;;;;18.70;99.90;;;;;;4976389;28;20023;-73
2023/05/11 13:22:05;;;;;;;6.93;2.80;;;18.80;99.90;;;;;;4975985;28;19906;-73
2023/05/11 13:24:30;;;;;;;3.53;2.90;;;18.80;99.90;;;;;;4976375;28;20045;-74
2023/05/11 13:26:57;;;;;;;4.57;2.22;;;18.80;99.90;;;;;;4975950;28;20476;-74
2023/05/11 13:29:23;;;;;;;3.10;2.22;;;18.60;99.90;;;;;;4975358;28;20031;-73
2023/05/11 13:31:50;;;;;;;3.35;2.20;;;18.60;99.90;;;;;;4976245;28;20133;-74
2023/05/11 13:34:17;;;;;;;3.13;2.20;;;18.50;99.90;;;;;;4976152;28;20042;-73
2023/05/11 13:36:43;;;;;;;3.17;2.22;;;18.60;99.90;;;;;;4976286;28;20027;-73
2023/05/11 13:39:09;;;;;;;3.92;1.80;;;18.70;99.90;;;;;;4976262;28;20027;-73
2023/05/11 13:41:35;;;;;;;2.85;1.77;;;18.80;99.90;;;;;;4976325;28;20026;-73
2023/05/11 13:44:01;;;;;;;;;;;18.90;99.50;;;;;;4975899;28;20475;-73
2023/05/11 13:46:27;;;;;;;2.33;2.00;;;18.90;99.40;;;;;;4975398;28;20371;-73
2023/05/11 13:48:53;;;;;;;;;;;18.80;99.70;;;;;;4975673;28;20019;-74
2023/05/11 13:51:22;;;;;;;3.40;2.33;;;18.90;99.90;;;;;;4975227;28;19929;-73
2023/05/11 13:53:47;;;;;;;5.47;2.22;;;18.90;99.60;;;;;;4974326;28;20034;-73
2023/05/11 13:56:13;;;;;;;2.78;1.98;;;18.70;99.90;;;;;;4975718;28;20027;-74
2023/05/11 13:58:39;;;;;;;2.40;1.70;;;18.70;99.90;;;;;;4974443;28;20031;-73
2023/05/11 14:01:04;;;;;;;2.65;1.80;;;18.70;99.50;;;;;;4975773;28;20074;-73
2023/05/11 14:03:30;;;;;;;3.55;2.17;;;18.60;99.70;;;;;;4973239;28;20030;-73
2023/05/11 14:05:56;;;;;;;3.00;2.40;;;18.60;99.90;;;;;;4958322;28;20101;-71
2023/05/11 14:08:22;;;;;;;;;;;18.30;99.90;;;;;;4956267;29;20070;-72
2023/05/11 14:10:48;;;;;;;2.88;1.80;;;18.40;99.90;;;;;;4955811;29;19907;-71
2023/05/11 14:13:13;;;;;;;5.38;2.58;;;18.30;99.90;;;;;;4958479;28;20039;-71
2023/05/11 14:15:40;;;;;;;4.63;2.28;;;18.30;99.90;;;;;;4971046;28;20039;-72
2023/05/11 14:18:06;;;;;;;4.68;2.17;;;18.40;99.90;;;;;;4974786;28;20105;-72
2023/05/11 14:20:36;;;;;;;4.43;3.08;;;18.30;99.90;;;;;;4968455;28;20560;-68
2023/05/11 14:23:02;;;;;;;2.83;2.33;;;18.30;99.90;;;;;;4969173;28;20066;-70
2023/05/11 14:25:27;;;;;;;5.15;3.08;;;18.20;99.90;;;;;;4973145;28;20381;-73
2023/05/11 14:27:54;;;;;;;2.92;1.92;;;18.10;99.90;;;;;;4990162;28;20077;-73
2023/05/11 14:30:20;;;;;;;3.58;1.90;;;18.20;99.90;;;;;;4973771;28;20030;-72
2023/05/11 14:32:46;;;;;;;3.58;2.17;;;18.20;99.90;;;;;;4973335;28;20023;-73
2023/05/11 14:35:11;;;;;;;2.58;2.00;;;18.20;99.90;;;;;;4974779;28;20122;-73
2023/05/11 14:37:38;;;;;;;2.90;1.80;;;18.10;99.90;;;;;;4974481;28;20030;-71
2023/05/11 14:40:03;;;;;;;;;;;17.90;99.90;;;;;;4973788;28;20034;-72
2023/05/11 14:42:29;;;;;;;2.72;1.85;;;18.00;99.90;;;;;;4974571;28;19917;-71
2023/05/11 14:44:54;;;;;;;4.55;2.35;;;18.10;99.90;;;;;;4974678;28;20023;-72
2023/05/11 14:47:20;;;;;;;2.45;1.80;;;18.30;99.90;;;;;;4974365;28;20027;-71
2023/05/11 14:49:46;;;;;;;3.17;2.00;;;18.50;99.90;;;;;;4974423;28;20089;-71
2023/05/11 14:52:11;;;;;;;2.53;1.80;;;18.40;99.90;;;;;;4973238;28;20042;-71
2023/05/11 14:54:37;;;;;;;3.08;1.88;;;18.30;99.90;;;;;;4973121;28;20118;-70
2023/05/11 14:57:03;;;;;;;2.60;1.85;;;18.40;99.90;;;;;;4974257;28;20118;-71
2023/05/11 14:59:29;;;;;;;;;;;18.40;99.50;;;;;;4973480;28;20126;-73
2023/05/11 15:01:55;;;;;;;4.30;1.83;;;18.40;99.60;;;;;;4974309;28;20319;-70
2023/05/11 15:04:21;;;;;;;2.08;1.80;;;18.30;99.90;;;;;;4974233;28;20134;-70
2023/05/11 15:06:49;;;;;;;3.50;2.45;;;18.00;99.90;;;;;;4968688;28;20027;-69
2023/05/11 15:09:15;;;;;;;6.30;2.35;;;17.90;99.90;;;;;;4953929;28;20421;-70
2023/05/11 15:11:40;;;;;;;4.80;2.42;;;17.70;99.90;;;;;;4955596;29;20019;-70
2023/05/11 15:14:06;;;;;;;4.72;2.10;;;17.70;99.90;;;;;;4960840;28;20038;-69
2023/05/11 15:16:31;;;;;;;4.10;2.25;;;17.70;99.90;;;;;;4962687;28;20082;-70
2023/05/11 15:18:58;;;;;;;4.53;1.80;;;17.80;99.90;;;;;;4954326;28;20035;-70
2023/05/11 15:21:24;;;;;;;;;;;17.70;99.90;;;;;;4955871;28;20023;-70
2023/05/11 15:23:49;;;;;;;3.35;2.00;;;17.70;99.90;;;;;;4953846;29;19918;-72
2023/05/11 15:26:15;;;;;;;3.83;2.17;;;17.60;99.90;;;;;;4969870;28;20023;-71
2023/05/11 15:28:40;;;;;;;3.13;1.80;;;17.60;99.90;;;;;;4955462;29;20418;-71
2023/05/11 15:31:06;;;;;;;2.72;1.80;;;17.60;99.90;;;;;;4955339;29;20031;-72
2023/05/11 15:33:32;;;;;;;3.37;1.87;;;17.70;99.90;;;;;;4954666;29;20043;-71
2023/05/11 15:35:57;;;;;;;3.08;1.77;;;17.70;99.90;;;;;;4954642;28;20275;-72
2023/05/11 15:38:23;;;;;;;2.00;1.58;;;17.70;99.90;;;;;;4954737;29;20499;-71
2023/05/11 15:40:48;;;;;;;1.90;1.47;;;17.70;99.90;;;;;;4954993;29;20110;-71
2023/05/11 15:43:14;;;;;;;4.45;1.90;;;17.70;99.90;;;;;;4955209;28;20326;-69
2023/05/11 15:45:40;;;;;;;2.85;1.63;;;17.80;99.90;;;;;;4964061;28;20121;-68
2023/05/11 15:48:06;;;;;;;2.97;1.75;;;17.80;99.90;;;;;;4977386;28;20085;-69
2023/05/11 15:50:31;;;;;;;3.25;1.52;;;17.80;99.90;;;;;;4977727;28;20023;-69
2023/05/11 15:52:57;;;;;;;2.72;1.80;;;17.90;99.60;;;;;;4992369;28;20443;-70
2023/05/11 15:55:24;;;;;;;2.63;1.92;;;17.80;99.90;;;;;;4976520;28;20117;-69
2023/05/11 15:57:49;;;;;;;3.10;1.38;;;17.90;99.60;;;;;;4977450;28;20023;-69
2023/05/11 16:00:16;;;;;;;4.03;1.50;;;18.00;98.90;;;;;;4977345;28;20038;-70
2023/05/11 16:02:44;;;;;;;2.00;1.50;;;17.90;99.60;;;;;;4977198;28;20054;-69
2023/05/11 16:05:10;;;;;;;4.18;2.17;;;18.00;99.30;;;;;;4976059;28;20023;-70
2023/05/11 16:07:35;;;;;;;1.67;1.58;;;17.90;99.40;;;;;;4992999;28;20093;-72
2023/05/11 16:10:02;;;;;;;3.05;1.80;;;17.80;99.80;;;;;;4977341;28;20035;-70
2023/05/11 16:12:27;;;;;;;;;;;17.70;99.90;;;;;;4977556;28;20078;-70
2023/05/11 16:14:53;;;;;;;9.05;2.20;;;17.50;99.90;;;;;;4976942;28;19906;-69
2023/05/11 16:17:19;;;;;;;1.63;1.40;;;17.50;99.90;;;;;;4958898;28;20492;-70
2023/05/11 16:19:44;;;;;;;3.53;1.83;;;17.50;99.50;;;;;;4958116;29;20492;-72
2023/05/11 16:22:10;;;;;;;3.33;1.40;;;17.50;99.60;;;;;;4957967;29;20473;-67
2023/05/11 16:24:35;;;;;;;3.08;1.25;;;17.50;99.60;;;;;;4957580;29;20027;-68
2023/05/11 16:27:01;;;;;;;3.30;1.77;;;17.60;99.50;;;;;;4960520;28;20041;-71
2023/05/11 16:29:26;;;;;;;2.70;1.40;;;17.60;99.40;;;;;;4957795;29;20274;-72
2023/05/11 16:31:55;;;;;;;3.13;1.50;;;17.50;99.60;;;;;;4958204;29;20620;-70
2023/05/11 16:34:21;;;;;;;3.17;1.77;;;17.60;99.90;;;;;;4957529;28;20436;-68
2023/05/11 16:36:46;;;;;;;4.38;1.63;;;17.50;99.90;;;;;;4957464;28;20360;-71
2023/05/11 16:39:12;;;;;;;3.20;1.77;;;17.40;99.90;;;;;;4963335;28;20488;-71
2023/05/11 16:41:38;;;;;;;2.50;2.00;;;17.40;99.90;;;;;;4977740;28;20772;-71
2023/05/11 16:44:03;;;;;;;2.97;2.42;;;17.30;99.90;;;;;;4978484;28;20425;-72
2023/05/11 16:46:29;;;;;;;4.15;2.03;;;17.30;99.90;;;;;;4976114;28;20030;-72
2023/05/11 16:48:54;;;;;;;2.60;1.50;;;17.20;99.90;;;;;;4992590;28;20057;-71
2023/05/11 16:51:20;;;;;;;2.60;1.55;;;17.10;99.90;;;;;;4978155;28;20015;-72
2023/05/11 16:53:46;;;;;;;3.63;1.70;;;17.00;99.90;;;;;;4975759;28;20030;-70